Time;durP1;ratioP1;P1;durP2;ratioP2;P2;SDS_P1;SDS_P2;PMS_P1;PMS_P2;Temp;Humidity;BMP_temperature;BMP_pressure;BME280_temperature;BME280_humidity;BME280_pressure;Samples;Min_cycle;Max_cycle;Signal;HPM_P1;HPM_P2
2023/12/11 00:03:08;;;;;;;;;;;;;;;2.44;73.33;99457.91;4386514;32;32685;-94
2023/12/11 00:05:57;;;;;;;;;;;;;;;2.82;72.16;99457.59;4398429;32;33379;-92
2023/12/11 00:09:07;;;;;;;;;;;;;;;2.83;71.69;99443.97;4398745;32;34526;-95
2023/12/11 00:11:58;;;;;;;;;;;;;;;2.07;73.69;99441.94;4396016;32;34118;-94
2023/12/11 00:14:27;;;;;;;;;;;;;;;2.26;72.89;99432.00;4386075;32;32719;-94
2023/12/11 00:17:16;;;;;;;;;;;;;;;2.31;72.44;99430.37;4394736;32;32820;-94
2023/12/11 00:20:06;;;;;;;;;;;;;;;2.38;72.32;99437.31;4380249;32;34706;-94
2023/12/11 00:23:35;;;;;;;;;;;;;;;2.08;73.42;99425.78;4392316;32;33269;-95
2023/12/11 00:27:04;;;;;;;;;;;;;;;2.15;72.97;99424.19;4381523;32;33180;-94
2023/12/11 00:30:33;;;;;;;;;;;;;;;1.52;73.84;99412.81;4392014;32;33756;-93
2023/12/11 00:33:27;;;;;;;;;;;;;;;1.61;74.22;99399.34;4381200;32;33022;-94
2023/12/11 00:36:17;;;;;;;;;;;;;;;1.53;73.43;99406.87;4394254;32;33299;-93
2023/12/11 00:39:05;;;;;;;;;;;;;;;1.43;74.42;99415.22;4384897;32;33633;-92
2023/12/11 00:42:14;;;;;;;;;;;;;;;1.59;73.98;99419.78;4392214;32;35147;-93
2023/12/11 00:45:23;;;;;;;;;;;;;;;1.33;75.25;99403.97;4397291;32;34548;-92
2023/12/11 00:48:33;;;;;;;;;;;;;;;1.50;75.39;99396.63;4386068;32;31382;-94
2023/12/11 00:51:22;;;;;;;;;;;;;;;1.90;74.65;99402.41;4400773;32;33646;-93
2023/12/11 00:54:11;;;;;;;;;;;;;;;1.43;77.49;99399.91;4404956;32;33852;-94
2023/12/11 00:57:22;;;;;;;;;;;;;;;1.48;77.35;99388.06;4405296;32;34571;-95
2023/12/11 01:00:13;;;;;;;;;;;;;;;1.44;78.23;99388.81;4403849;32;33428;-94
2023/12/11 01:02:42;;;;;;;;;;;;;;;1.15;79.38;99396.78;4375867;32;32894;-92
2023/12/11 01:05:32;;;;;;;;;;;;;;;1.46;78.69;99392.28;4371150;32;33919;-93
2023/12/11 01:09:01;;;;;;;;;;;;;;;1.53;79.56;99395.81;4384721;32;34059;-94
2023/12/11 01:11:49;;;;;;;;;;;;;;;1.33;79.88;99382.63;4385075;32;32893;-94
2023/12/11 01:15:00;;;;;;;;;;;;;;;1.99;77.18;99388.94;4391120;32;34319;-93
2023/12/11 01:17:48;;;;;;;;;;;;;;;1.92;77.86;99398.19;4382263;32;33555;-94
2023/12/11 01:21:17;;;;;;;;;;;;;;;1.61;79.93;99397.66;4398687;32;34005;-92
2023/12/11 01:24:05;;;;;;;;;;;;;;;1.49;80.28;99400.00;4397756;32;32847;-93
2023/12/11 01:26:54;;;;;;;;;;;;;;;1.81;78.87;99397.16;4394658;32;32832;-93
2023/12/11 01:30:26;;;;;;;;;;;;;;;1.99;78.51;99396.63;4393744;32;34852;-93
2023/12/11 01:33:05;;;;;;;;;;;;;;;1.89;79.46;99385.38;4403500;32;34174;-94
2023/12/11 01:35:36;;;;;;;;;;;;;;;1.69;79.79;99382.44;4400990;32;34108;-93
2023/12/11 01:38:43;;;;;;;;;;;;;;;2.05;79.16;99376.22;4399279;32;35096;-93
2023/12/11 01:41:32;;;;;;;;;;;;;;;1.52;82.07;99373.63;4385529;32;33985;-93
2023/12/11 01:44:21;;;;;;;;;;;;;;;2.04;79.50;99370.25;4385497;32;31904;-94
2023/12/11 01:47:31;;;;;;;;;;;;;;;2.05;79.66;99358.31;4396619;32;32731;-95
2023/12/11 01:50:59;;;;;;;;;;;;;;;2.37;77.77;99351.13;4398771;32;35534;-94
2023/12/11 01:54:05;;;;;;;;;;;;;;;2.18;79.00;99360.25;4399990;32;33883;-93
2023/12/11 01:56:55;;;;;;;;;;;;;;;2.27;78.11;99347.59;4399554;32;34044;-94
2023/12/11 01:59:44;;;;;;;;;;;;;;;2.22;78.56;99348.34;4399633;32;33521;-93
2023/12/11 02:03:34;;;;;;;;;;;;;;;2.56;77.41;99345.44;4398862;32;33383;-93
2023/12/11 02:06:23;;;;;;;;;;;;;;;2.18;79.08;99332.09;4387444;32;34080;-93
2023/12/11 02:09:32;;;;;;;;;;;;;;;2.30;78.64;99333.97;4399102;32;34463;-94
2023/12/11 02:12:23;;;;;;;;;;;;;;;2.36;78.24;99323.81;4399087;32;33691;-93
2023/12/11 02:15:13;;;;;;;;;;;;;;;1.67;80.82;99336.41;4383403;32;33405;-93
2023/12/11 02:18:03;;;;;;;;;;;;;;;1.98;79.66;99323.25;4391298;32;33253;-93
2023/12/11 02:21:13;;;;;;;;;;;;;;;2.06;79.71;99329.34;4393216;32;34194;-94
2023/12/11 02:24:05;;;;;;;;;;;;;;;1.62;80.63;99330.37;4395790;32;33425;-92
2023/12/11 02:26:56;;;;;;;;;;;;;;;2.02;79.09;99333.53;4386230;32;34060;-93
2023/12/11 02:30:05;;;;;;;;;;;;;;;2.18;79.13;99341.47;4374540;32;33142;-93
2023/12/11 02:32:54;;;;;;;;;;;;;;;2.30;78.87;99345.06;4377199;32;33603;-93
2023/12/11 02:35:23;;;;;;;;;;;;;;;2.10;79.15;99341.34;4374001;32;33533;-94
2023/12/11 02:38:12;;;;;;;;;;;;;;;2.05;79.10;99336.13;4377792;32;34315;-93
2023/12/11 02:41:24;;;;;;;;;;;;;;;2.47;77.45;99321.41;4376671;32;32657;-94
2023/12/11 02:44:35;;;;;;;;;;;;;;;1.85;79.54;99312.81;4372473;32;33207;-94
2023/12/11 02:47:05;;;;;;;;;;;;;;;2.24;79.15;99296.34;4385993;32;33713;-94
2023/12/11 02:49:35;;;;;;;;;;;;;;;2.07;78.88;99283.31;4389172;32;33744;-94
2023/12/11 02:52:24;;;;;;;;;;;;;;;1.91;78.96;99273.72;4383647;32;34672;-94
2023/12/11 02:55:13;;;;;;;;;;;;;;;1.94;79.52;99260.09;4382682;32;33500;-94
2023/12/11 02:58:22;;;;;;;;;;;;;;;1.56;80.79;99273.16;4383290;32;32602;-93
2023/12/11 03:01:32;;;;;;;;;;;;;;;1.08;82.83;99279.97;4385081;32;34924;-93
2023/12/11 03:04:43;;;;;;;;;;;;;;;0.85;84.61;99275.31;4371608;32;33788;-94
2023/12/11 03:07:31;;;;;;;;;;;;;;;1.32;82.37;99269.34;4385145;32;33554;-93
2023/12/11 03:11:01;;;;;;;;;;;;;;;1.67;80.39;99269.94;4386300;32;33391;-94
2023/12/11 03:14:09;;;;;;;;;;;;;;;1.54;81.08;99275.66;4371488;32;32982;-94
2023/12/11 03:17:19;;;;;;;;;;;;;;;1.10;84.45;99277.47;4390434;32;35138;-94
2023/12/11 03:20:30;;;;;;;;;;;;;;;1.02;84.06;99259.47;4371503;32;35345;-93
2023/12/11 03:23:00;;;;;;;;;;;;;;;1.71;82.00;99261.44;4383322;32;33256;-95
2023/12/11 03:25:48;;;;;;;;;;;;;;;1.88;81.14;99276.19;4376660;32;30804;-94
2023/12/11 03:28:37;;;;;;;;;;;;;;;1.64;82.29;99269.87;4387955;32;33592;-93
2023/12/11 03:31:25;;;;;;;;;;;;;;;1.76;80.47;99260.66;4380629;32;32431;-94
2023/12/11 03:34:56;;;;;;;;;;;;;;;1.81;81.21;99269.25;4386084;32;34105;-96
2023/12/11 03:38:05;;;;;;;;;;;;;;;1.44;82.18;99268.69;4386749;32;33329;-95
2023/12/11 03:41:14;;;;;;;;;;;;;;;1.54;83.59;99280.78;4381577;32;34148;-94
2023/12/11 03:44:03;;;;;;;;;;;;;;;2.03;80.39;99271.31;4372055;32;32607;-93
2023/12/11 03:47:12;;;;;;;;;;;;;;;1.90;80.35;99260.03;4383438;32;32946;-95
2023/12/11 03:50:42;;;;;;;;;;;;;;;2.19;79.81;99277.50;4381435;32;34229;-94
2023/12/11 03:53:32;;;;;;;;;;;;;;;2.07;79.80;99278.19;4380584;32;35312;-95
2023/12/11 03:56:21;;;;;;;;;;;;;;;1.88;82.24;99273.62;4376023;32;33567;-94
2023/12/11 03:58:50;;;;;;;;;;;;;;;2.33;79.02;99281.09;4381001;32;32982;-93
2023/12/11 04:02:18;;;;;;;;;;;;;;;2.21;79.32;99286.06;4374721;32;33264;-94
2023/12/11 04:06:08;;;;;;;;;;;;;;;2.13;80.83;99293.63;4373277;32;34051;-94
2023/12/11 04:08:59;;;;;;;;;;;;;;;2.35;79.35;99299.06;4368017;32;33112;-96
2023/12/11 04:12:07;;;;;;;;;;;;;;;2.35;80.06;99288.81;4379327;32;34002;-93
2023/12/11 04:15:16;;;;;;;;;;;;;;;2.48;79.20;99285.56;4377412;32;33216;-94
2023/12/11 04:18:28;;;;;;;;;;;;;;;2.71;78.22;99269.63;4386233;32;33140;-94
2023/12/11 04:21:39;;;;;;;;;;;;;;;2.40;79.15;99271.81;4390854;32;33545;-93
2023/12/11 04:24:48;;;;;;;;;;;;;;;1.88;81.40;99255.72;4387092;32;32135;-94
2023/12/11 04:27:37;;;;;;;;;;;;;;;1.90;81.50;99261.72;4400093;32;34165;-94
2023/12/11 04:30:27;;;;;;;;;;;;;;;2.11;81.49;99268.87;4385015;32;34211;-93
2023/12/11 04:33:15;;;;;;;;;;;;;;;1.75;82.28;99264.94;4398486;32;33459;-94
2023/12/11 04:36:55;;;;;;;;;;;;;;;1.27;85.02;99253.06;4380222;32;32709;-93
2023/12/11 04:40:23;;;;;;;;;;;;;;;1.46;85.74;99239.75;4386068;32;33786;-93
2023/12/11 04:43:33;;;;;;;;;;;;;;;1.77;83.41;99224.91;4384727;32;33618;-93
2023/12/11 04:46:41;;;;;;;;;;;;;;;2.13;81.56;99232.22;4385569;32;33937;-94
2023/12/11 04:50:09;;;;;;;;;;;;;;;2.03;82.62;99239.72;4400623;32;33728;-95
2023/12/11 04:53:19;;;;;;;;;;;;;;;2.13;81.45;99231.37;4387474;32;35242;-94
2023/12/11 04:57:08;;;;;;;;;;;;;;;2.35;80.72;99241.03;4386327;32;32349;-93
2023/12/11 04:59:57;;;;;;;;;;;;;;;1.62;83.92;99234.88;4393163;32;34025;-93
2023/12/11 05:03:07;;;;;;;;;;;;;;;2.13;81.80;99241.59;4384164;32;32095;-95
2023/12/11 05:05:55;;;;;;;;;;;;;;;1.49;84.57;99257.69;4400870;32;33453;-95
2023/12/11 05:09:46;;;;;;;;;;;;;;;1.92;83.06;99263.47;4391430;32;34666;-93
2023/12/11 05:12:34;;;;;;;;;;;;;;;1.31;85.36;99249.75;4395557;32;34210;-94
2023/12/11 05:15:23;;;;;;;;;;;;;;;2.11;81.88;99256.94;4397218;32;31464;-94
2023/12/11 05:18:31;;;;;;;;;;;;;;;1.92;82.09;99244.72;4396409;32;33796;-93
2023/12/11 05:21:44;;;;;;;;;;;;;;;2.13;82.60;99232.22;4382495;32;34272;-93
2023/12/11 05:24:35;;;;;;;;;;;;;;;2.18;80.74;99237.41;4393482;32;34520;-94
2023/12/11 05:27:05;;;;;;;;;;;;;;;2.39;80.40;99234.22;4402060;32;33144;-93
2023/12/11 05:29:54;;;;;;;;;;;;;;;1.70;83.11;99233.31;4385025;32;34071;-93
2023/12/11 05:33:23;;;;;;;;;;;;;;;2.48;80.66;99246.31;4395607;32;34207;-93
2023/12/11 05:36:33;;;;;;;;;;;;;;;1.38;86.08;99245.59;4398433;32;33854;-93
2023/12/11 05:40:03;;;;;;;;;;;;;;;2.11;82.85;99246.69;4394943;32;32549;-93
2023/12/11 05:43:10;;;;;;;;;;;;;;;1.86;84.15;99231.81;4400639;32;33805;-93
2023/12/11 05:46:00;;;;;;;;;;;;;;;1.47;85.19;99202.28;4397075;32;34623;-92
2023/12/11 05:49:08;;;;;;;;;;;;;;;2.04;83.49;99196.28;4386459;32;33255;-94
2023/12/11 05:52:19;;;;;;;;;;;;;;;1.77;83.68;99176.31;4387181;32;32355;-93
2023/12/11 05:55:11;;;;;;;;;;;;;;;2.11;83.42;99218.53;4383617;32;34945;-93
2023/12/11 05:58:20;;;;;;;;;;;;;;;1.70;85.22;99225.66;4387061;32;33012;-94
2023/12/11 06:01:29;;;;;;;;;;;;;;;1.79;85.47;99219.78;4386362;32;34104;-92
2023/12/11 06:04:57;;;;;;;;;;;;;;;1.94;83.68;99240.50;4389243;32;33630;-92
2023/12/11 06:08:07;;;;;;;;;;;;;;;1.69;83.99;99229.91;4392463;32;33313;-92
2023/12/11 06:10:59;;;;;;;;;;;;;;;2.14;82.69;99216.00;4377658;32;33110;-92
2023/12/11 06:14:07;;;;;;;;;;;;;;;2.05;84.80;99215.87;4385938;32;33046;-92
2023/12/11 06:16:56;;;;;;;;;;;;;;;2.54;82.03;99218.22;4394457;32;33156;-92
2023/12/11 06:19:34;;;;;;;;;;;;;;;2.60;81.14;99225.09;4394476;32;34380;-93
2023/12/11 06:22:12;;;;;;;;;;;;;;;2.02;82.96;99235.47;4399436;32;35073;-92
2023/12/11 06:25:02;;;;;;;;;;;;;;;1.94;84.11;99260.09;4387736;32;32927;-92
2023/12/11 06:27:54;;;;;;;;;;;;;;;1.89;84.51;99263.44;4394912;32;32892;-92
2023/12/11 06:30:24;;;;;;;;;;;;;;;2.44;82.89;99277.81;4395092;32;34380;-91
2023/12/11 06:32:53;;;;;;;;;;;;;;;2.60;81.78;99276.31;4394572;32;33621;-91
2023/12/11 06:35:23;;;;;;;;;;;;;;;2.55;81.66;99277.13;4399561;32;34479;-93
2023/12/11 06:37:51;;;;;;;;;;;;;;;2.37;82.58;99276.91;4388595;32;33172;-94
2023/12/11 06:40:38;;;;;;;;;;;;;;;2.50;83.19;99268.53;4394323;32;33385;-92
2023/12/11 06:43:48;;;;;;;;;;;;;;;2.62;80.61;99267.81;4385371;32;33411;-92
2023/12/11 06:46:36;;;;;;;;;;;;;;;2.71;80.73;99234.62;4397776;32;34518;-92
2023/12/11 06:49:23;;;;;;;;;;;;;;;2.45;82.90;99223.22;4392617;32;32019;-92
2023/12/11 06:51:52;;;;;;;;;;;;;;;2.34;83.70;99217.97;4400722;32;32748;-93
2023/12/11 06:55:16;;;;;;;;;;;;;;;2.36;84.27;99221.41;4385044;32;34270;-94
2023/12/11 06:58:06;;;;;;;;;;;;;;;2.18;85.51;99216.94;4390457;32;32764;-92
2023/12/11 07:01:33;;;;;;;;;;;;;;;2.52;82.85;99241.25;4383159;32;31282;-93
2023/12/11 07:04:24;;;;;;;;;;;;;;;3.02;80.99;99252.00;4386478;32;32921;-93
2023/12/11 07:06:58;;;;;;;;;;;;;;;2.61;82.42;99220.00;4390157;32;33003;-93
2023/12/11 07:09:29;;;;;;;;;;;;;;;3.10;79.83;99212.81;4383828;32;33672;-92
2023/12/11 07:11:57;;;;;;;;;;;;;;;2.89;80.14;99231.41;4383280;32;32370;-93
2023/12/11 07:14:26;;;;;;;;;;;;;;;2.59;82.77;99236.22;4386114;32;33690;-93
2023/12/11 07:17:01;;;;;;;;;;;;;;;2.42;84.10;99246.25;4402579;32;34993;-93
2023/12/11 07:19:30;;;;;;;;;;;;;;;3.00;80.83;99244.34;4385488;32;33945;-95
2023/12/11 07:21:59;;;;;;;;;;;;;;;2.73;81.87;99253.44;4396370;32;33674;-93
2023/12/11 07:24:47;;;;;;;;;;;;;;;3.24;79.97;99263.34;4397223;32;33246;-92
2023/12/11 07:27:16;;;;;;;;;;;;;;;2.69;81.88;99250.81;4386325;32;33868;-92
2023/12/11 07:29:45;;;;;;;;;;;;;;;2.88;81.44;99246.78;4378498;32;32866;-92
2023/12/11 07:32:15;;;;;;;;;;;;;;;2.87;82.03;99235.62;4360760;32;32876;-92
2023/12/11 07:34:44;;;;;;;;;;;;;;;3.51;79.17;99252.50;4388646;32;34358;-91
2023/12/11 07:37:14;;;;;;;;;;;;;;;3.53;79.66;99267.03;4386823;32;33678;-92
2023/12/11 07:39:42;;;;;;;;;;;;;;;3.28;80.49;99258.25;4373075;32;33497;-91
2023/12/11 07:42:11;;;;;;;;;;;;;;;3.32;79.37;99254.87;4377928;32;31612;-94
2023/12/11 07:44:39;;;;;;;;;;;;;;;3.43;80.63;99265.22;4382524;32;35390;-92
2023/12/11 07:47:08;;;;;;;;;;;;;;;3.27;81.10;99248.84;4386412;32;33734;-91
2023/12/11 07:49:38;;;;;;;;;;;;;;;3.30;81.70;99251.44;4379212;32;33060;-91
2023/12/11 07:52:07;;;;;;;;;;;;;;;3.52;80.11;99249.91;4388732;32;32426;-92
2023/12/11 07:54:36;;;;;;;;;;;;;;;2.98;82.69;99240.88;4379706;32;33442;-92
2023/12/11 07:57:04;;;;;;;;;;;;;;;3.38;81.30;99237.00;4383579;32;34362;-91
2023/12/11 07:59:37;;;;;;;;;;;;;;;3.07;82.75;99222.16;4368543;32;35386;-91
2023/12/11 08:02:07;;;;;;;;;;;;;;;2.86;83.86;99231.37;4386982;32;33105;-90
2023/12/11 08:04:40;;;;;;;;;;;;;;;3.12;82.06;99225.66;4387471;32;34811;-90
2023/12/11 08:07:09;;;;;;;;;;;;;;;3.53;80.58;99233.69;4385218;32;34676;-91
2023/12/11 08:09:41;;;;;;;;;;;;;;;3.59;79.40;99233.72;4381706;32;33745;-91
2023/12/11 08:12:10;;;;;;;;;;;;;;;3.27;80.45;99217.25;4384991;32;33510;-92
2023/12/11 08:14:38;;;;;;;;;;;;;;;3.35;80.62;99200.22;4389713;32;34060;-92
2023/12/11 08:17:07;;;;;;;;;;;;;;;3.34;80.89;99195.94;4365557;32;33424;-91
2023/12/11 08:19:36;;;;;;;;;;;;;;;2.72;83.41;99192.78;4381970;32;33260;-91
2023/12/11 08:22:06;;;;;;;;;;;;;;;3.01;82.71;99189.66;4382083;32;34020;-91
2023/12/11 08:24:35;;;;;;;;;;;;;;;3.62;80.38;99184.16;4385895;32;33477;-91
2023/12/11 08:27:07;;;;;;;;;;;;;;;3.38;80.65;99157.50;4380173;32;34316;-91
2023/12/11 08:29:36;;;;;;;;;;;;;;;3.59;79.50;99153.38;4379610;32;34453;-91
2023/12/11 08:32:04;;;;;;;;;;;;;;;3.52;80.65;99146.47;4379848;32;33769;-92
2023/12/11 08:34:38;;;;;;;;;;;;;;;3.44;81.47;99149.00;4376016;32;33637;-92
2023/12/11 08:37:08;;;;;;;;;;;;;;;3.08;83.40;99131.66;4376094;32;34636;-91
2023/12/11 08:39:40;;;;;;;;;;;;;;;3.18;82.24;99136.84;4384602;32;33984;-92
2023/12/11 08:42:08;;;;;;;;;;;;;;;3.39;82.00;99133.56;4382398;32;33617;-91
2023/12/11 08:44:36;;;;;;;;;;;;;;;3.59;80.92;99137.97;4380696;32;33678;-92
2023/12/11 08:47:07;;;;;;;;;;;;;;;3.66;80.67;99137.16;4389495;32;33805;-91
2023/12/11 08:49:35;;;;;;;;;;;;;;;3.85;79.93;99146.69;4381754;32;33584;-91
2023/12/11 08:52:05;;;;;;;;;;;;;;;3.88;79.42;99142.41;4381352;32;34178;-91
2023/12/11 08:54:35;;;;;;;;;;;;;;;3.27;83.24;99156.56;4381651;32;33896;-91
2023/12/11 08:57:09;;;;;;;;;;;;;;;2.95;85.16;99172.53;4382629;32;35211;-92
2023/12/11 08:59:38;;;;;;;;;;;;;;;3.41;82.14;99177.19;4389042;32;34030;-92
2023/12/11 09:02:07;;;;;;;;;;;;;;;2.81;83.94;99176.66;4382968;32;31786;-92
2023/12/11 09:04:36;;;;;;;;;;;;;;;3.02;85.59;99175.12;4383037;32;33567;-91
2023/12/11 09:07:07;;;;;;;;;;;;;;;3.32;83.31;99167.72;4383735;32;33297;-91
2023/12/11 09:09:37;;;;;;;;;;;;;;;3.61;82.66;99167.06;4390615;32;33229;-92
2023/12/11 09:12:06;;;;;;;;;;;;;;;3.70;81.97;99145.75;4376961;32;33717;-92
2023/12/11 09:14:54;;;;;;;;;;;;;;;4.09;79.78;99139.09;4370292;32;33689;-91
2023/12/11 09:17:23;;;;;;;;;;;;;;;4.19;79.92;99149.38;4384773;32;34587;-92
2023/12/11 09:19:52;;;;;;;;;;;;;;;3.88;81.37;99144.97;4384872;32;34187;-91
2023/12/11 09:22:25;;;;;;;;;;;;;;;4.02;80.15;99143.34;4405097;32;33332;-92
2023/12/11 09:24:55;;;;;;;;;;;;;;;3.80;81.88;99152.63;4399023;32;34120;-91
2023/12/11 09:27:24;;;;;;;;;;;;;;;3.54;82.25;99155.91;4399418;32;34369;-90
2023/12/11 09:29:52;;;;;;;;;;;;;;;4.07;79.33;99155.31;4385398;32;33413;-91
2023/12/11 09:32:21;;;;;;;;;;;;;;;4.16;78.62;99151.94;4373770;32;805518;-90
2023/12/11 09:34:52;;;;;;;;;;;;;;;3.90;79.34;99139.00;4406046;32;33261;-90
2023/12/11 09:37:21;;;;;;;;;;;;;;;3.19;82.46;99132.59;4400540;32;33849;-90
2023/12/11 09:39:53;;;;;;;;;;;;;;;3.58;82.53;99136.28;4405267;32;34786;-90
2023/12/11 09:42:23;;;;;;;;;;;;;;;4.03;81.10;99133.06;4401011;32;34048;-90
2023/12/11 09:44:55;;;;;;;;;;;;;;;4.31;79.94;99130.59;4405781;32;33898;-89
2023/12/11 09:47:24;;;;;;;;;;;;;;;4.49;78.84;99127.22;4393970;32;33629;-89
2023/12/11 09:49:55;;;;;;;;;;;;;;;4.56;79.73;99128.09;4387012;32;33668;-89
2023/12/11 09:52:23;;;;;;;;;;;;;;;4.83;79.42;99140.13;4384622;32;33157;-88
2023/12/11 09:54:57;;;;;;;;;;;;;;;4.94;80.60;99143.56;4398192;32;33442;-88
2023/12/11 09:57:27;;;;;;;;;;;;;;;4.44;82.56;99134.91;4406584;32;34002;-88
2023/12/11 09:59:57;;;;;;;;;;;;;;;4.67;81.19;99128.97;4400718;32;33323;-88
2023/12/11 10:02:27;;;;;;;;;;;;;;;4.75;80.73;99127.25;4398874;32;33543;-88
2023/12/11 10:05:03;;;;;;;;;;;;;;;4.81;79.51;99127.28;4398991;32;33618;-88
2023/12/11 10:07:32;;;;;;;;;;;;;;;4.09;81.82;99134.81;4404713;32;34040;-88
2023/12/11 10:10:16;;;;;;;;;;;;;;;4.98;79.46;99129.88;4399828;32;33727;-88
2023/12/11 10:12:46;;;;;;;;;;;;;;;5.04;78.16;99129.00;4398179;32;32982;-87
2023/12/11 10:15:21;;;;;;;;;;;;;;;4.69;78.55;99124.72;4399940;32;33076;-87
2023/12/11 10:18:15;;;;;;;;;;;;;;;4.88;79.13;99112.69;4400568;32;32430;-87
2023/12/11 10:20:45;;;;;;;;;;;;;;;5.01;78.44;99101.59;4389512;32;33934;-88
2023/12/11 10:23:20;;;;;;;;;;;;;;;4.86;78.00;99106.72;4406129;32;33248;-88
2023/12/11 10:25:56;;;;;;;;;;;;;;;5.09;77.53;99122.13;4400705;32;33414;-87
2023/12/11 10:28:26;;;;;;;;;;;;;;;5.19;77.11;99130.72;4400469;32;34161;-88
2023/12/11 10:31:01;;;;;;;;;;;;;;;5.20;76.61;99122.16;4404155;32;33774;-88
2023/12/11 10:33:33;;;;;;;;;;;;;;;5.23;76.69;99106.72;4400000;32;33036;-88
2023/12/11 10:36:15;;;;;;;;;;;;;;;5.50;76.33;99098.09;4405501;32;33861;-88
2023/12/11 10:38:46;;;;;;;;;;;;;;;4.90;76.13;99091.31;4394325;32;34603;-88
2023/12/11 10:41:24;;;;;;;;;;;;;;;4.82;75.41;99079.31;4387476;32;33901;-87
2023/12/11 10:43:59;;;;;;;;;;;;;;;4.94;76.16;99071.59;4385319;32;33231;-87
2023/12/11 10:46:47;;;;;;;;;;;;;;;5.24;74.98;99054.41;4396540;32;33948;-87
2023/12/11 10:49:15;;;;;;;;;;;;;;;4.71;75.84;99048.47;4405474;32;35472;-86
2023/12/11 10:51:44;;;;;;;;;;;;;;;4.26;77.19;99056.13;4400693;32;34185;-87
2023/12/11 10:54:13;;;;;;;;;;;;;;;3.73;80.13;99064.53;4400116;32;32951;-87
2023/12/11 10:56:42;;;;;;;;;;;;;;;4.43;77.51;99061.28;4400103;32;34474;-87
2023/12/11 10:59:17;;;;;;;;;;;;;;;4.65;76.43;99064.72;4400938;32;34339;-87
2023/12/11 11:01:46;;;;;;;;;;;;;;;4.99;74.78;99082.72;4405514;32;34364;-87
2023/12/11 11:04:16;;;;;;;;;;;;;;;4.79;75.96;99082.75;4399842;32;32529;-87
2023/12/11 11:06:51;;;;;;;;;;;;;;;4.29;76.74;99083.53;4399713;32;34132;-87
2023/12/11 11:09:20;;;;;;;;;;;;;;;4.19;77.43;99071.53;4405489;32;34820;-87
2023/12/11 11:11:49;;;;;;;;;;;;;;;4.49;77.23;99076.72;4405357;32;33884;-88
2023/12/11 11:14:29;;;;;;;;;;;;;;;4.64;76.45;99065.59;4401313;32;33115;-87
2023/12/11 11:17:00;;;;;;;;;;;;;;;4.44;77.79;99059.56;4399564;32;33998;-87
2023/12/11 11:19:29;;;;;;;;;;;;;;;4.79;76.10;99035.63;4405042;32;34477;-87
2023/12/11 11:22:20;;;;;;;;;;;;;;;3.83;78.25;99032.91;4401832;32;34074;-87
2023/12/11 11:25:24;;;;;;;;;;;;;;;3.95;78.50;99033.81;4401871;32;32759;-88
2023/12/11 11:27:53;;;;;;;;;;;;;;;4.42;78.02;99031.34;4407759;32;34260;-88
2023/12/11 11:30:42;;;;;;;;;;;;;;;4.25;78.38;99017.59;4403079;32;34817;-89
2023/12/11 11:33:16;;;;;;;;;;;;;;;3.56;81.79;98999.47;4401542;32;34121;-89
2023/12/11 11:35:47;;;;;;;;;;;;;;;4.90;76.27;98992.78;4401949;32;33170;-89
2023/12/11 11:38:16;;;;;;;;;;;;;;;4.99;75.96;98992.75;4389292;32;33854;-89
2023/12/11 11:40:51;;;;;;;;;;;;;;;5.29;74.54;98990.97;4406072;32;34799;-89
2023/12/11 11:43:20;;;;;;;;;;;;;;;5.23;74.02;98989.28;4392298;32;32691;-89
2023/12/11 11:45:53;;;;;;;;;;;;;;;5.22;73.55;98989.25;4401278;32;32808;-88
2023/12/11 11:48:34;;;;;;;;;;;;;;;5.46;72.66;98991.78;4401915;32;34589;-87
2023/12/11 11:51:02;;;;;;;;;;;;;;;5.09;73.00;98991.03;4403168;32;33643;-88
2023/12/11 11:53:31;;;;;;;;;;;;;;;4.75;75.52;98982.53;4403743;32;34210;-88
2023/12/11 11:56:02;;;;;;;;;;;;;;;5.05;74.20;98974.75;4392178;32;32352;-87
2023/12/11 11:58:34;;;;;;;;;;;;;;;5.08;73.71;98972.19;4401072;32;34395;-88
2023/12/11 12:01:04;;;;;;;;;;;;;;;5.09;73.18;98983.31;4405525;32;32373;-87
2023/12/11 12:03:41;;;;;;;;;;;;;;;5.01;73.91;98983.34;4400785;32;34033;-88
2023/12/11 12:06:09;;;;;;;;;;;;;;;5.10;73.01;98980.75;4405278;32;32618;-87
2023/12/11 12:08:42;;;;;;;;;;;;;;;5.31;72.50;98994.37;4401828;32;34519;-88
2023/12/11 12:11:11;;;;;;;;;;;;;;;5.23;72.95;99014.12;4404540;32;34312;-88
2023/12/11 12:13:44;;;;;;;;;;;;;;;5.38;73.31;99019.22;4401502;32;34573;-90
2023/12/11 12:16:13;;;;;;;;;;;;;;;5.54;73.40;99030.34;4401418;32;32928;-89
2023/12/11 12:18:51;;;;;;;;;;;;;;;5.54;74.04;99031.19;4407294;32;34918;-88
2023/12/11 12:21:20;;;;;;;;;;;;;;;5.35;75.00;99035.53;4403766;32;34352;-87
2023/12/11 12:24:01;;;;;;;;;;;;;;;5.54;73.91;99028.62;4401064;32;34740;-89
2023/12/11 12:26:33;;;;;;;;;;;;;;;5.48;74.53;99013.19;4400486;32;33381;-87
2023/12/11 12:29:09;;;;;;;;;;;;;;;5.42;75.10;99012.38;4404154;32;34584;-89
2023/12/11 12:31:38;;;;;;;;;;;;;;;5.54;75.03;99020.91;4405947;32;33978;-87
2023/12/11 12:34:08;;;;;;;;;;;;;;;5.18;76.31;99023.59;4400878;32;34928;-88
2023/12/11 12:36:37;;;;;;;;;;;;;;;5.42;75.76;99017.53;4398772;32;32921;-87
2023/12/11 12:39:11;;;;;;;;;;;;;;;5.86;73.14;99014.75;4399616;32;33213;-88
2023/12/11 12:41:39;;;;;;;;;;;;;;;6.08;72.31;98996.66;4405023;32;35124;-87
2023/12/11 12:44:13;;;;;;;;;;;;;;;6.16;71.45;99000.00;4400507;32;34697;-87
2023/12/11 12:46:42;;;;;;;;;;;;;;;6.12;71.73;98993.19;4394414;32;32952;-88
2023/12/11 12:49:13;;;;;;;;;;;;;;;6.08;72.23;98994.06;4395442;32;33601;-87
2023/12/11 12:51:46;;;;;;;;;;;;;;;5.87;72.85;98983.00;4401385;32;33598;-87
2023/12/11 12:54:18;;;;;;;;;;;;;;;5.89;72.25;98982.97;4407042;32;34066;-86
2023/12/11 12:56:55;;;;;;;;;;;;;;;5.34;74.35;98968.69;4390506;32;33197;-86
2023/12/11 12:59:24;;;;;;;;;;;;;;;4.30;79.22;98964.56;4402676;32;34534;-85
2023/12/11 13:02:00;;;;;;;;;;;;;;;4.97;75.80;98958.47;4401783;32;34283;-87
2023/12/11 13:04:30;;;;;;;;;;;;;;;5.32;74.44;98968.69;4400089;32;33573;-86
2023/12/11 13:07:10;;;;;;;;;;;;;;;4.85;74.99;98967.06;4403738;32;34517;-86
2023/12/11 13:09:43;;;;;;;;;;;;;;;5.22;73.67;98964.44;4398914;32;34134;-86
2023/12/11 13:12:12;;;;;;;;;;;;;;;4.88;74.51;98956.81;4384118;32;33646;-86
2023/12/11 13:14:44;;;;;;;;;;;;;;;5.04;74.20;98982.47;4394575;32;34738;-87
2023/12/11 13:17:12;;;;;;;;;;;;;;;5.34;72.73;98990.09;4398183;32;33711;-86
2023/12/11 13:19:43;;;;;;;;;;;;;;;5.57;71.99;99005.44;4504944;26;33943;-87
2023/12/11 13:22:13;;;;;;;;;;;;;;;5.54;72.27;99012.31;4462834;32;34943;-86
2023/12/11 13:24:42;;;;;;;;;;;;;;;5.38;73.16;99005.53;4463035;32;34381;-86
2023/12/11 13:27:11;;;;;;;;;;;;;;;5.45;72.87;99005.50;4457095;32;32911;-86
2023/12/11 13:29:41;;;;;;;;;;;;;;;5.40;73.37;99025.22;4463566;32;34799;-86
2023/12/11 13:32:09;;;;;;;;;;;;;;;5.43;73.28;99004.63;4459184;32;33433;-87
2023/12/11 13:34:38;;;;;;;;;;;;;;;5.45;73.40;99023.50;4463971;32;34150;-87
2023/12/11 13:37:08;;;;;;;;;;;;;;;5.63;72.59;99009.72;4462306;32;33260;-87
2023/12/11 13:39:39;;;;;;;;;;;;;;;5.75;72.22;99006.22;4450780;32;33920;-87
2023/12/11 13:42:08;;;;;;;;;;;;;;;5.90;71.28;99024.19;4461829;32;34350;-86
2023/12/11 13:44:41;;;;;;;;;;;;;;;5.81;71.49;99023.38;4462623;32;34068;-88
2023/12/11 13:47:09;;;;;;;;;;;;;;;5.88;70.89;99023.31;4456849;32;33644;-87
2023/12/11 13:49:39;;;;;;;;;;;;;;;5.86;71.16;99013.91;4459721;32;34772;-87
2023/12/11 13:52:10;;;;;;;;;;;;;;;5.81;71.08;99018.22;4462268;32;33593;-87
2023/12/11 13:54:38;;;;;;;;;;;;;;;5.69;71.36;99025.13;4462351;32;33147;-88
2023/12/11 13:57:07;;;;;;;;;;;;;;;5.67;70.91;98997.69;4462389;32;33333;-88
2023/12/11 13:59:36;;;;;;;;;;;;;;;5.85;69.95;99007.91;4442757;32;32996;-87
2023/12/11 14:02:07;;;;;;;;;;;;;;;5.27;71.29;98992.72;4466146;32;34314;-87
2023/12/11 14:04:46;;;;;;;;;;;;;;;5.20;71.62;98985.88;4466437;32;34995;-87
2023/12/11 14:07:16;;;;;;;;;;;;;;;5.47;70.62;98983.19;4460182;32;33787;-87
2023/12/11 14:09:51;;;;;;;;;;;;;;;5.41;70.70;98985.78;4457242;32;33789;-87
2023/12/11 14:12:26;;;;;;;;;;;;;;;5.07;71.64;98987.59;4461147;32;33369;-88
2023/12/11 14:14:56;;;;;;;;;;;;;;;5.23;70.33;98989.28;4461700;32;36103;-87
2023/12/11 14:17:28;;;;;;;;;;;;;;;5.19;70.62;98977.28;4458381;32;33341;-88
2023/12/11 14:19:56;;;;;;;;;;;;;;;5.02;70.70;98969.59;4456456;32;33789;-87
2023/12/11 14:22:29;;;;;;;;;;;;;;;5.34;69.52;98982.38;4449975;32;33677;-88
2023/12/11 14:24:57;;;;;;;;;;;;;;;5.24;69.98;98990.13;4453453;32;33554;-88
2023/12/11 14:27:30;;;;;;;;;;;;;;;5.40;69.25;98996.94;4457958;32;33669;-87
2023/12/11 14:29:59;;;;;;;;;;;;;;;5.18;70.10;98997.88;4449602;32;34182;-87